createdAt,value
2022-10-05T00:01:55.532Z,100.00
2022-10-05T00:04:24.527Z,100.00
2022-10-05T00:06:58.172Z,100.00
2022-10-05T00:09:25.116Z,100.00
2022-10-05T00:11:51.964Z,100.00
2022-10-05T00:14:27.898Z,100.00
2022-10-05T00:16:56.243Z,100.00
2022-10-05T00:19:33.672Z,100.00
2022-10-05T00:22:22.290Z,100.00
2022-10-05T00:24:56.898Z,100.00
2022-10-05T00:27:26.898Z,100.00
2022-10-05T00:29:57.817Z,100.00
2022-10-05T00:32:24.571Z,100.00
2022-10-05T00:34:51.560Z,100.00
2022-10-05T00:37:18.401Z,100.00
2022-10-05T00:39:45.825Z,100.00
2022-10-05T00:42:18.343Z,100.00
2022-10-05T00:45:12.795Z,100.00
2022-10-05T00:47:46.685Z,100.00
2022-10-05T00:50:28.626Z,100.00
2022-10-05T00:53:02.697Z,100.00
2022-10-05T00:55:56.705Z,100.00
2022-10-05T00:58:41.524Z,100.00
2022-10-05T01:01:13.039Z,100.00
2022-10-05T01:04:10.997Z,100.00
2022-10-05T01:10:51.804Z,100.00
2022-10-05T01:13:37.990Z,100.00
2022-10-05T01:16:42.429Z,100.00
2022-10-05T01:19:12.341Z,100.00
2022-10-05T01:21:51.285Z,100.00
2022-10-05T01:24:46.331Z,100.00
2022-10-05T01:27:30.040Z,100.00
2022-10-05T01:30:03.246Z,100.00
2022-10-05T01:33:29.455Z,100.00
2022-10-05T01:36:04.763Z,100.00
2022-10-05T01:38:40.369Z,100.00
2022-10-05T01:41:38.488Z,100.00
2022-10-05T01:44:16.393Z,100.00
2022-10-05T01:47:28.744Z,100.00
2022-10-05T01:50:21.653Z,100.00
2022-10-05T01:53:06.831Z,100.00
2022-10-05T01:55:49.130Z,100.00
2022-10-05T01:58:23.419Z,100.00
2022-10-05T02:01:28.747Z,100.00
2022-10-05T02:04:30.999Z,100.00
2022-10-05T02:07:10.470Z,100.00
2022-10-05T02:09:47.418Z,100.00
2022-10-05T02:12:22.523Z,100.00
2022-10-05T02:14:54.604Z,100.00
2022-10-05T02:17:32.715Z,100.00
2022-10-05T02:20:04.256Z,100.00
2022-10-05T02:22:37.106Z,100.00
2022-10-05T02:25:10.372Z,100.00
2022-10-05T02:27:45.987Z,100.00
2022-10-05T02:30:16.484Z,100.00
2022-10-05T02:32:51.675Z,100.00
2022-10-05T02:35:19.855Z,100.00
2022-10-05T02:38:28.145Z,100.00
2022-10-05T02:41:14.937Z,100.00
2022-10-05T02:44:06.281Z,100.00
2022-10-05T02:46:41.890Z,100.00
2022-10-05T02:49:39.789Z,100.00
2022-10-05T02:52:29.128Z,100.00
2022-10-05T02:55:19.578Z,100.00
2022-10-05T02:58:08.947Z,100.00
2022-10-05T03:00:47.942Z,100.00
2022-10-05T03:03:17.747Z,100.00
2022-10-05T03:05:51.841Z,100.00
2022-10-05T03:08:47.857Z,100.00
2022-10-05T03:11:36.033Z,100.00
2022-10-05T03:14:13.927Z,100.00
2022-10-05T03:16:48.126Z,100.00
2022-10-05T03:19:54.480Z,100.00
2022-10-05T03:22:48.441Z,100.00
2022-10-05T03:25:47.232Z,100.00
2022-10-05T03:28:29.111Z,100.00
2022-10-05T03:31:12.326Z,100.00
2022-10-05T03:33:43.043Z,100.00
2022-10-05T03:36:22.279Z,100.00
2022-10-05T03:39:17.418Z,100.00
2022-10-05T03:42:21.093Z,100.00
2022-10-05T03:44:50.739Z,100.00
2022-10-05T03:47:25.507Z,100.00
2022-10-05T03:50:36.288Z,100.00
2022-10-05T03:53:15.364Z,100.00
2022-10-05T03:56:03.370Z,100.00
2022-10-05T03:58:42.930Z,100.00
2022-10-05T04:01:19.819Z,100.00
2022-10-05T04:03:52.563Z,100.00
2022-10-05T04:06:25.332Z,100.00
2022-10-05T04:09:03.124Z,100.00
2022-10-05T04:11:48.376Z,100.00
2022-10-05T04:14:26.860Z,100.00
2022-10-05T04:17:05.032Z,100.00
2022-10-05T04:19:34.753Z,100.00
2022-10-05T04:22:35.847Z,100.00
2022-10-05T04:25:18.636Z,100.00
2022-10-05T04:27:58.210Z,100.00
2022-10-05T04:30:26.456Z,100.00
2022-10-05T04:32:57.583Z,100.00
2022-10-05T04:35:27.084Z,100.00
2022-10-05T04:38:08.597Z,100.00
2022-10-05T04:41:04.956Z,100.00
2022-10-05T04:43:35.257Z,100.00
2022-10-05T04:46:20.646Z,100.00
2022-10-05T04:49:11.322Z,100.00
2022-10-05T04:51:59.908Z,100.00
2022-10-05T04:54:42.491Z,100.00
2022-10-05T04:57:25.125Z,100.00
2022-10-05T05:00:05.759Z,100.00
2022-10-05T05:02:44.287Z,100.00
2022-10-05T05:05:17.000Z,100.00
2022-10-05T05:07:55.164Z,100.00
2022-10-05T05:11:16.766Z,100.00
2022-10-05T05:13:50.818Z,100.00
2022-10-05T05:16:27.765Z,100.00
2022-10-05T05:19:01.235Z,100.00
2022-10-05T05:21:54.137Z,100.00
2022-10-05T05:24:32.967Z,100.00
2022-10-05T05:27:24.487Z,100.00
2022-10-05T05:30:15.890Z,100.00
2022-10-05T05:32:48.836Z,100.00
2022-10-05T05:35:53.535Z,100.00
2022-10-05T05:38:27.233Z,100.00
2022-10-05T05:41:07.114Z,100.00
2022-10-05T05:43:53.621Z,100.00
2022-10-05T05:47:02.834Z,100.00
2022-10-05T05:50:07.393Z,100.00
2022-10-05T05:52:46.030Z,100.00
2022-10-05T05:55:35.847Z,100.00
2022-10-05T05:58:25.505Z,100.00
2022-10-05T06:01:02.121Z,100.00
2022-10-05T06:03:41.370Z,100.00
2022-10-05T06:06:15.070Z,100.00
2022-10-05T06:08:46.929Z,100.00
2022-10-05T06:11:30.649Z,100.00
2022-10-05T06:14:04.308Z,100.00
2022-10-05T06:16:45.992Z,100.00
2022-10-05T06:19:16.784Z,100.00
2022-10-05T06:22:15.008Z,100.00
2022-10-05T06:24:56.477Z,100.00
2022-10-05T06:27:39.637Z,100.00
2022-10-05T06:30:17.464Z,100.00
2022-10-05T06:32:50.109Z,100.00
2022-10-05T06:35:36.460Z,100.00
2022-10-05T06:38:12.317Z,100.00
2022-10-05T06:41:07.822Z,100.00
2022-10-05T06:43:50.919Z,100.00
2022-10-05T06:46:23.653Z,100.00
2022-10-05T06:49:45.862Z,100.00
2022-10-05T06:53:00.184Z,100.00
2022-10-05T06:55:50.093Z,100.00
2022-10-05T06:58:38.142Z,100.00
2022-10-05T07:01:16.430Z,100.00
2022-10-05T07:04:05.433Z,100.00
2022-10-05T07:06:35.763Z,100.00
2022-10-05T07:09:05.452Z,100.00
2022-10-05T07:12:07.957Z,100.00
2022-10-05T07:14:59.167Z,100.00
2022-10-05T07:17:49.125Z,100.00
2022-10-05T07:20:37.818Z,100.00
2022-10-05T07:23:20.035Z,100.00
2022-10-05T07:25:55.185Z,100.00
2022-10-05T07:28:46.338Z,100.00
2022-10-05T07:31:28.609Z,100.00
2022-10-05T07:33:58.042Z,100.00
2022-10-05T07:37:12.749Z,100.00
2022-10-05T07:40:00.213Z,100.00
2022-10-05T07:42:56.730Z,100.00
2022-10-05T07:45:30.313Z,100.00
2022-10-05T07:48:01.113Z,100.00
2022-10-05T07:50:43.815Z,100.00
2022-10-05T07:53:24.983Z,100.00
2022-10-05T07:55:58.132Z,100.00
2022-10-05T07:58:31.148Z,100.00
2022-10-05T08:01:11.313Z,100.00
2022-10-05T08:03:59.681Z,100.00
2022-10-05T08:06:26.364Z,100.00
2022-10-05T08:08:57.556Z,100.00
2022-10-05T08:11:34.457Z,100.00
2022-10-05T08:14:08.231Z,100.00
2022-10-05T08:16:39.728Z,100.00
2022-10-05T08:19:24.297Z,100.00
2022-10-05T08:22:06.527Z,100.00
2022-10-05T08:24:54.411Z,100.00
2022-10-05T08:27:31.049Z,100.00
2022-10-05T08:30:09.271Z,100.00
2022-10-05T08:32:50.477Z,100.00
2022-10-05T08:35:34.169Z,100.00
2022-10-05T08:38:05.365Z,100.00
2022-10-05T08:40:47.304Z,100.00
2022-10-05T08:43:45.303Z,100.00
2022-10-05T08:46:23.972Z,100.00
2022-10-05T08:49:15.875Z,100.00
2022-10-05T08:51:54.693Z,100.00
2022-10-05T08:54:47.527Z,100.00
2022-10-05T08:57:48.507Z,100.00
2022-10-05T09:00:30.365Z,100.00
2022-10-05T09:03:16.140Z,100.00
2022-10-05T09:06:18.765Z,100.00
2022-10-05T09:09:14.324Z,100.00
2022-10-05T09:12:09.098Z,100.00
2022-10-05T09:15:25.020Z,100.00
2022-10-05T09:18:11.675Z,100.00
2022-10-05T09:20:54.023Z,100.00
2022-10-05T09:23:44.316Z,100.00
2022-10-05T09:26:41.396Z,100.00
2022-10-05T09:29:52.662Z,100.00
2022-10-05T09:32:44.393Z,100.00
2022-10-05T09:35:49.178Z,100.00
2022-10-05T09:38:37.692Z,100.00
2022-10-05T09:41:25.626Z,100.00
2022-10-05T09:44:34.924Z,99.41
2022-10-05T09:47:01.576Z,100.00
2022-10-05T09:49:57.391Z,100.00
2022-10-05T09:53:06.010Z,100.00
2022-10-05T09:56:00.466Z,99.57
2022-10-05T09:58:38.984Z,98.98
2022-10-05T10:01:36.680Z,98.45
2022-10-05T10:04:31.793Z,97.41
2022-10-05T10:07:43.167Z,96.98
2022-10-05T10:10:34.890Z,96.35
2022-10-05T10:13:52.283Z,96.62
2022-10-05T10:16:37.562Z,96.99
2022-10-05T10:19:41.401Z,96.90
2022-10-05T10:22:39.728Z,96.08
2022-10-05T10:25:37.281Z,96.35
2022-10-05T10:28:20.052Z,97.51
2022-10-05T10:31:07.897Z,97.81
2022-10-05T10:33:57.249Z,98.81
2022-10-05T10:36:36.519Z,98.33
2022-10-05T10:39:12.653Z,98.22
2022-10-05T10:42:25.302Z,97.23
2022-10-05T10:44:59.167Z,98.19
2022-10-05T10:47:40.967Z,98.42
2022-10-05T10:50:27.551Z,99.24
2022-10-05T10:53:15.880Z,99.89
2022-10-05T10:56:04.036Z,99.81
2022-10-05T10:58:51.213Z,99.96
2022-10-05T11:01:55.346Z,99.58
2022-10-05T11:04:30.971Z,99.78
2022-10-05T11:07:13.747Z,98.93
2022-10-05T11:10:11.693Z,97.86
2022-10-05T11:13:20.455Z,96.85
2022-10-05T11:16:13.486Z,96.39
2022-10-05T11:19:24.895Z,95.25
2022-10-05T11:22:30.275Z,95.14
2022-10-05T11:25:26.144Z,93.77
2022-10-05T11:28:20.869Z,93.94
2022-10-05T11:31:05.905Z,92.90
2022-10-05T11:33:52.990Z,92.86
2022-10-05T11:36:52.423Z,93.75
2022-10-05T11:39:44.129Z,92.51
2022-10-05T11:42:29.015Z,91.78
2022-10-05T11:45:27.007Z,92.33
2022-10-05T11:48:12.571Z,90.50
2022-10-05T11:51:02.971Z,90.17
2022-10-05T11:53:57.957Z,90.59
2022-10-05T11:56:34.962Z,90.75
2022-10-05T11:59:51.148Z,90.75
2022-10-05T12:02:17.758Z,90.31
2022-10-05T12:05:10.889Z,90.51
2022-10-05T12:08:03.441Z,89.77
2022-10-05T12:10:52.205Z,89.10
2022-10-05T12:13:36.608Z,88.66
2022-10-05T12:16:29.645Z,88.86
2022-10-05T12:19:26.146Z,88.94
2022-10-05T12:22:10.166Z,89.34
2022-10-05T12:24:36.702Z,88.20
2022-10-05T12:27:16.139Z,88.10
2022-10-05T12:29:45.906Z,87.84
2022-10-05T12:32:22.580Z,87.55
2022-10-05T12:35:36.180Z,86.74
2022-10-05T12:38:28.737Z,85.84
2022-10-05T12:41:16.276Z,84.11
2022-10-05T12:43:45.887Z,84.32
2022-10-05T12:46:32.226Z,84.94
2022-10-05T12:49:27.013Z,83.28
2022-10-05T12:52:00.968Z,83.70
2022-10-05T12:54:47.629Z,83.32
2022-10-05T12:57:39.188Z,82.46
2022-10-05T13:00:09.515Z,80.87
2022-10-05T13:03:09.041Z,81.09
2022-10-05T13:05:47.584Z,79.13
2022-10-05T13:08:29.588Z,79.34
2022-10-05T13:11:28.415Z,78.38
2022-10-05T13:14:13.795Z,76.85
2022-10-05T13:16:54.833Z,76.92
2022-10-05T13:19:24.793Z,74.68
2022-10-05T13:22:33.452Z,75.66
2022-10-05T13:25:28.733Z,73.70
2022-10-05T13:28:15.940Z,73.43
2022-10-05T13:30:52.281Z,74.02
2022-10-05T13:33:42.232Z,72.26
2022-10-05T13:36:21.241Z,72.29
2022-10-05T13:39:03.994Z,71.89
2022-10-05T13:41:52.076Z,69.73
2022-10-05T13:44:32.637Z,69.81
2022-10-05T13:47:06.031Z,72.26
2022-10-05T13:49:44.796Z,68.40
2022-10-05T13:52:42.997Z,69.08
2022-10-05T13:55:40.032Z,69.63
2022-10-05T13:58:36.881Z,69.79
2022-10-05T14:01:13.705Z,69.66
2022-10-05T14:03:41.373Z,68.70
2022-10-05T14:06:14.212Z,67.93
2022-10-05T14:08:51.636Z,69.78
2022-10-05T14:11:26.920Z,68.97
2022-10-05T14:14:01.724Z,67.71
2022-10-05T14:16:29.158Z,68.90
2022-10-05T14:19:15.767Z,68.99
2022-10-05T14:21:55.205Z,68.16
2022-10-05T14:24:45.900Z,67.57
2022-10-05T14:27:26.579Z,67.12
2022-10-05T14:30:19.123Z,66.78
2022-10-05T14:32:50.704Z,67.42
2022-10-05T14:35:23.245Z,68.29
2022-10-05T14:37:56.339Z,68.37
2022-10-05T14:40:30.756Z,68.06
2022-10-05T14:42:59.995Z,67.32
2022-10-05T14:45:30.336Z,67.75
2022-10-05T14:48:01.860Z,66.37
2022-10-05T14:50:33.644Z,67.81
2022-10-05T14:53:03.112Z,65.42
2022-10-05T14:55:52.096Z,66.61
2022-10-05T14:58:35.203Z,65.98
2022-10-05T15:01:17.873Z,67.05
2022-10-05T15:04:18.048Z,68.09
2022-10-05T15:06:58.531Z,68.29
2022-10-05T15:09:30.015Z,67.51
2022-10-05T15:12:00.145Z,68.29
2022-10-05T15:14:32.612Z,68.73
2022-10-05T15:17:12.923Z,68.81
2022-10-05T15:19:52.782Z,69.79
2022-10-05T15:22:25.791Z,68.24
2022-10-05T15:25:13.843Z,68.87
2022-10-05T15:27:59.647Z,70.12
2022-10-05T15:30:26.488Z,70.20
2022-10-05T15:33:19.492Z,68.46
2022-10-05T15:36:06.553Z,69.92
2022-10-05T15:38:59.536Z,70.31
2022-10-05T15:42:00.282Z,70.47
2022-10-05T15:44:39.289Z,71.03
2022-10-05T15:47:19.254Z,71.19
2022-10-05T15:50:24.305Z,71.27
2022-10-05T15:52:59.504Z,71.37
2022-10-05T15:55:40.476Z,69.90
2022-10-05T15:58:31.589Z,72.36
2022-10-05T16:01:10.240Z,72.06
2022-10-05T16:03:42.797Z,72.46
2022-10-05T16:06:50.987Z,72.20
2022-10-05T16:09:33.403Z,74.21
2022-10-05T16:12:38.520Z,73.04
2022-10-05T16:15:34.681Z,73.13
2022-10-05T16:18:31.312Z,72.70
2022-10-05T16:21:25.946Z,73.36
2022-10-05T16:23:55.771Z,73.70
2022-10-05T16:26:31.443Z,73.73
2022-10-05T16:29:13.499Z,73.25
2022-10-05T16:32:06.293Z,73.57
2022-10-05T16:34:36.030Z,73.82
2022-10-05T16:37:23.759Z,74.18
2022-10-05T16:40:28.657Z,74.77
2022-10-05T16:43:10.510Z,75.95
2022-10-05T16:46:30.907Z,76.18
2022-10-05T16:49:06.612Z,75.79
2022-10-05T16:51:46.987Z,76.88
2022-10-05T16:54:38.412Z,77.00
2022-10-05T16:57:25.496Z,78.16
2022-10-05T17:00:25.768Z,78.71
2022-10-05T17:03:22.195Z,78.62
2022-10-05T17:06:34.971Z,78.99
2022-10-05T17:09:29.361Z,78.37
2022-10-05T17:12:38.032Z,78.88
2022-10-05T17:15:10.747Z,80.39
2022-10-05T17:17:43.388Z,80.02
2022-10-05T17:20:52.420Z,80.54
2022-10-05T17:24:20.212Z,79.47
2022-10-05T17:27:17.838Z,79.48
2022-10-05T17:30:32.145Z,78.75
2022-10-05T17:33:14.813Z,77.94
2022-10-05T17:35:53.547Z,78.30
2022-10-05T17:38:30.312Z,77.26
2022-10-05T17:41:00.153Z,76.67
2022-10-05T17:43:31.380Z,75.93
2022-10-05T17:46:06.898Z,76.45
2022-10-05T17:48:44.277Z,76.52
2022-10-05T17:51:50.565Z,76.77
2022-10-05T17:54:40.112Z,77.19
2022-10-05T17:57:06.912Z,78.89
2022-10-05T17:59:44.577Z,79.74
2022-10-05T18:02:30.516Z,81.30
2022-10-05T18:05:06.061Z,82.27
2022-10-05T18:07:35.070Z,81.47
2022-10-05T18:10:16.911Z,82.64
2022-10-05T18:13:41.613Z,83.33
2022-10-05T18:16:10.570Z,83.69
2022-10-05T18:18:43.469Z,84.82
2022-10-05T18:21:29.000Z,85.00
2022-10-05T18:23:59.026Z,85.70
2022-10-05T18:26:52.085Z,87.24
2022-10-05T18:29:41.567Z,86.75
2022-10-05T18:32:20.326Z,87.61
2022-10-05T18:35:07.298Z,88.04
2022-10-05T18:37:56.055Z,88.11
2022-10-05T18:40:30.231Z,87.55
2022-10-05T18:43:14.696Z,89.10
2022-10-05T18:46:14.833Z,88.01
2022-10-05T18:48:56.253Z,88.28
2022-10-05T18:51:55.880Z,88.33
2022-10-05T18:54:55.147Z,87.75
2022-10-05T18:57:45.848Z,89.26
2022-10-05T19:00:26.209Z,90.20
2022-10-05T19:02:53.221Z,89.88
2022-10-05T19:05:49.313Z,89.08
2022-10-05T19:08:46.675Z,89.36
2022-10-05T19:11:23.273Z,89.33
2022-10-05T19:14:10.388Z,89.06
2022-10-05T19:16:58.555Z,89.66
2022-10-05T19:19:40.030Z,89.53
2022-10-05T19:22:15.833Z,89.31
2022-10-05T19:24:51.849Z,89.11
2022-10-05T19:27:37.241Z,88.82
2022-10-05T19:30:18.876Z,87.60
2022-10-05T19:33:07.462Z,87.10
2022-10-05T19:35:46.128Z,87.38
2022-10-05T19:38:37.174Z,86.75
2022-10-05T19:41:22.745Z,86.86
2022-10-05T19:44:23.433Z,86.00
2022-10-05T19:46:52.165Z,86.60
2022-10-05T19:49:44.100Z,86.76
2022-10-05T19:52:26.617Z,86.74
2022-10-05T19:55:25.406Z,86.91
2022-10-05T19:57:54.477Z,86.38
2022-10-05T20:00:25.732Z,86.03
2022-10-05T20:03:09.312Z,85.93
2022-10-05T20:05:36.381Z,84.89
2022-10-05T20:08:05.711Z,85.12
2022-10-05T20:10:32.704Z,85.28
2022-10-05T20:13:04.966Z,85.33
2022-10-05T20:15:53.194Z,84.57
2022-10-05T20:19:10.773Z,86.53
2022-10-05T20:21:46.489Z,86.88
2022-10-05T20:24:20.253Z,85.87
2022-10-05T20:27:02.148Z,86.91
2022-10-05T20:29:33.692Z,85.48
2022-10-05T20:32:02.453Z,85.71
2022-10-05T20:34:29.067Z,85.52
2022-10-05T20:36:55.814Z,86.64
2022-10-05T20:39:23.526Z,85.69
2022-10-05T20:41:50.602Z,85.87
2022-10-05T20:44:17.175Z,85.31
2022-10-05T20:46:46.666Z,85.41
2022-10-05T20:49:13.399Z,86.13
2022-10-05T20:51:40.336Z,86.74
2022-10-05T20:54:08.034Z,86.78
2022-10-05T20:56:35.264Z,86.55
2022-10-05T20:59:01.869Z,86.22
2022-10-05T21:01:29.983Z,86.98
2022-10-05T21:03:56.700Z,86.70
2022-10-05T21:06:28.729Z,87.07
2022-10-05T21:08:55.495Z,86.91
2022-10-05T21:11:22.280Z,87.51
2022-10-05T21:13:53.745Z,87.02
2022-10-05T21:16:23.248Z,88.35
2022-10-05T21:18:49.946Z,87.17
2022-10-05T21:21:17.621Z,87.31
2022-10-05T21:23:45.543Z,88.26
2022-10-05T21:26:12.873Z,87.78
2022-10-05T21:28:40.235Z,87.21
2022-10-05T21:31:08.410Z,88.37
2022-10-05T21:33:37.239Z,87.98
2022-10-05T21:36:04.466Z,87.72
2022-10-05T21:38:31.256Z,87.40
2022-10-05T21:40:58.037Z,87.86
2022-10-05T21:43:25.482Z,88.47
2022-10-05T21:45:54.740Z,88.94
2022-10-05T21:48:21.802Z,88.77
2022-10-05T21:50:48.429Z,88.42
2022-10-05T21:53:21.302Z,89.72
2022-10-05T21:55:50.226Z,89.71
2022-10-05T21:58:19.216Z,90.59
2022-10-05T22:00:46.014Z,92.09
2022-10-05T22:03:12.827Z,91.87
2022-10-05T22:05:40.726Z,91.80
2022-10-05T22:08:09.094Z,93.13
2022-10-05T22:10:35.808Z,92.59
2022-10-05T22:13:04.301Z,92.94
2022-10-05T22:15:31.733Z,94.17
2022-10-05T22:17:59.756Z,93.17
2022-10-05T22:20:27.370Z,94.13
2022-10-05T22:22:54.169Z,93.51
2022-10-05T22:25:21.844Z,94.52
2022-10-05T22:27:50.221Z,94.75
2022-10-05T22:30:18.553Z,95.25
2022-10-05T22:32:45.394Z,95.19
2022-10-05T22:35:12.426Z,94.38
2022-10-05T22:37:39.401Z,94.02
2022-10-05T22:40:08.026Z,93.68
2022-10-05T22:42:35.018Z,95.11
2022-10-05T22:45:01.782Z,95.94
2022-10-05T22:47:28.729Z,95.56
2022-10-05T22:49:55.740Z,94.95
2022-10-05T22:52:22.433Z,93.68
2022-10-05T22:54:49.114Z,93.88
2022-10-05T22:57:16.003Z,94.23
2022-10-05T22:59:42.661Z,91.90
2022-10-05T23:02:09.496Z,94.42
2022-10-05T23:04:36.088Z,95.48
2022-10-05T23:07:03.073Z,97.28
2022-10-05T23:09:29.650Z,99.54
2022-10-05T23:11:56.642Z,100.00
2022-10-05T23:14:23.838Z,100.00
2022-10-05T23:16:50.629Z,100.00
2022-10-05T23:19:17.325Z,100.00
2022-10-05T23:21:44.084Z,100.00
2022-10-05T23:24:10.609Z,100.00
2022-10-05T23:26:37.144Z,100.00
2022-10-05T23:29:03.918Z,100.00
2022-10-05T23:31:32.033Z,100.00
2022-10-05T23:33:58.756Z,100.00
2022-10-05T23:36:28.290Z,100.00
2022-10-05T23:38:55.054Z,100.00
2022-10-05T23:41:21.775Z,100.00
2022-10-05T23:43:49.041Z,100.00
2022-10-05T23:46:17.762Z,100.00
2022-10-05T23:48:44.453Z,100.00
2022-10-05T23:51:13.162Z,100.00
2022-10-05T23:53:39.950Z,100.00
2022-10-05T23:56:06.872Z,100.00
2022-10-05T23:58:33.488Z,100.00
